sensor_id;sensor_type;location;lat;lon;timestamp;pressure;altitude;pressure_sealevel;temperature;humidity
78016;BME280;67223;51.102;5.882;2023-06-14T00:00:18;101157.84;;;19.74;43.10
78016;BME280;67223;51.102;5.882;2023-06-14T00:02:43;101161.56;;;19.73;43.52
78016;BME280;67223;51.102;5.882;2023-06-14T00:05:09;101161.00;;;19.86;43.29
78016;BME280;67223;51.102;5.882;2023-06-14T00:07:41;101156.06;;;19.97;43.27
78016;BME280;67223;51.102;5.882;2023-06-14T00:10:14;101158.53;;;20.07;42.68
78016;BME280;67223;51.102;5.882;2023-06-14T00:12:40;101153.97;;;20.07;43.09
78016;BME280;67223;51.102;5.882;2023-06-14T00:15:07;101157.28;;;19.87;44.03
78016;BME280;67223;51.102;5.882;2023-06-14T00:17:35;101158.09;;;19.95;44.04
78016;BME280;67223;51.102;5.882;2023-06-14T00:20:02;101149.94;;;19.64;44.20
78016;BME280;67223;51.102;5.882;2023-06-14T00:22:29;101156.63;;;19.38;44.83
78016;BME280;67223;51.102;5.882;2023-06-14T00:24:56;101154.78;;;19.22;46.16
78016;BME280;67223;51.102;5.882;2023-06-14T00:27:21;101152.47;;;19.03;46.18
78016;BME280;67223;51.102;5.882;2023-06-14T00:29:47;101173.47;;;18.92;46.46
78016;BME280;67223;51.102;5.882;2023-06-14T00:32:12;101174.81;;;18.80;46.81
78016;BME280;67223;51.102;5.882;2023-06-14T00:34:37;101167.03;;;18.77;46.32
78016;BME280;67223;51.102;5.882;2023-06-14T00:37:03;101174.47;;;18.83;46.31
78016;BME280;67223;51.102;5.882;2023-06-14T00:39:28;101172.03;;;19.29;43.87
78016;BME280;67223;51.102;5.882;2023-06-14T00:41:54;101169.50;;;19.27;45.37
78016;BME280;67223;51.102;5.882;2023-06-14T00:44:20;101178.34;;;19.05;45.47
78016;BME280;67223;51.102;5.882;2023-06-14T00:46:46;101167.38;;;18.82;46.18
78016;BME280;67223;51.102;5.882;2023-06-14T00:49:14;101177.00;;;18.85;46.03
78016;BME280;67223;51.102;5.882;2023-06-14T00:51:41;101177.34;;;18.82;46.32
78016;BME280;67223;51.102;5.882;2023-06-14T00:54:07;101177.16;;;18.59;46.89
78016;BME280;67223;51.102;5.882;2023-06-14T00:56:32;101178.53;;;18.96;46.27
78016;BME280;67223;51.102;5.882;2023-06-14T00:58:58;101168.03;;;18.84;46.19
78016;BME280;67223;51.102;5.882;2023-06-14T01:01:24;101171.75;;;18.83;46.42
78016;BME280;67223;51.102;5.882;2023-06-14T01:03:50;101168.41;;;18.57;47.49
78016;BME280;67223;51.102;5.882;2023-06-14T01:09:40;101174.75;;;18.40;47.91
78016;BME280;67223;51.102;5.882;2023-06-14T01:12:47;101177.97;;;18.27;48.83
78016;BME280;67223;51.102;5.882;2023-06-14T01:15:10;101183.03;;;18.30;48.33
78016;BME280;67223;51.102;5.882;2023-06-14T01:17:38;101177.97;;;18.35;47.26
78016;BME280;67223;51.102;5.882;2023-06-14T01:20:11;101181.72;;;18.59;45.89
78016;BME280;67223;51.102;5.882;2023-06-14T01:22:51;101177.81;;;18.53;46.70
78016;BME280;67223;51.102;5.882;2023-06-14T01:25:18;101179.84;;;18.43;46.63
78016;BME280;67223;51.102;5.882;2023-06-14T01:28:06;101178.81;;;18.44;46.75
78016;BME280;67223;51.102;5.882;2023-06-14T01:30:38;101185.13;;;18.61;46.17
78016;BME280;67223;51.102;5.882;2023-06-14T01:33:04;101182.56;;;18.51;46.44
78016;BME280;67223;51.102;5.882;2023-06-14T01:35:31;101179.66;;;18.44;46.79
78016;BME280;67223;51.102;5.882;2023-06-14T01:37:57;101183.38;;;18.27;47.61
78016;BME280;67223;51.102;5.882;2023-06-14T01:40:24;101185.16;;;18.02;47.93
78016;BME280;67223;51.102;5.882;2023-06-14T01:42:50;101178.06;;;18.10;48.29
78016;BME280;67223;51.102;5.882;2023-06-14T01:45:17;101183.78;;;17.98;48.38
78016;BME280;67223;51.102;5.882;2023-06-14T01:47:44;101184.94;;;17.88;48.96
78016;BME280;67223;51.102;5.882;2023-06-14T01:50:10;101180.38;;;17.88;48.74
78016;BME280;67223;51.102;5.882;2023-06-14T01:52:37;101176.66;;;17.81;48.97
78016;BME280;67223;51.102;5.882;2023-06-14T01:55:04;101180.63;;;18.03;48.67
78016;BME280;67223;51.102;5.882;2023-06-14T01:57:30;101175.00;;;17.96;48.65
78016;BME280;67223;51.102;5.882;2023-06-14T01:59:55;101181.34;;;17.79;48.79
78016;BME280;67223;51.102;5.882;2023-06-14T02:02:21;101174.66;;;17.99;48.53
78016;BME280;67223;51.102;5.882;2023-06-14T02:04:47;101176.16;;;17.94;48.50
78016;BME280;67223;51.102;5.882;2023-06-14T02:07:13;101174.00;;;17.97;48.33
78016;BME280;67223;51.102;5.882;2023-06-14T02:09:39;101179.06;;;18.08;48.54
78016;BME280;67223;51.102;5.882;2023-06-14T02:12:05;101178.84;;;17.86;48.83
78016;BME280;67223;51.102;5.882;2023-06-14T02:14:32;101181.72;;;17.84;48.75
78016;BME280;67223;51.102;5.882;2023-06-14T02:16:58;101177.09;;;17.69;49.39
78016;BME280;67223;51.102;5.882;2023-06-14T02:19:26;101180.50;;;17.45;50.58
78016;BME280;67223;51.102;5.882;2023-06-14T02:21:51;101179.63;;;17.44;50.53
78016;BME280;67223;51.102;5.882;2023-06-14T02:24:17;101186.81;;;17.28;50.58
78016;BME280;67223;51.102;5.882;2023-06-14T02:26:42;101184.91;;;17.20;50.59
78016;BME280;67223;51.102;5.882;2023-06-14T02:29:08;101187.41;;;17.13;51.33
78016;BME280;67223;51.102;5.882;2023-06-14T02:31:36;101193.09;;;17.10;51.31
78016;BME280;67223;51.102;5.882;2023-06-14T02:34:02;101189.34;;;17.29;50.65
78016;BME280;67223;51.102;5.882;2023-06-14T02:36:27;101194.44;;;17.32;50.76
78016;BME280;67223;51.102;5.882;2023-06-14T02:38:55;101204.38;;;17.32;50.98
78016;BME280;67223;51.102;5.882;2023-06-14T02:41:23;101197.13;;;17.32;51.01
78016;BME280;67223;51.102;5.882;2023-06-14T02:43:48;101194.25;;;17.34;50.65
78016;BME280;67223;51.102;5.882;2023-06-14T02:46:14;101202.72;;;17.39;50.67
78016;BME280;67223;51.102;5.882;2023-06-14T02:48:40;101200.34;;;17.36;50.21
78016;BME280;67223;51.102;5.882;2023-06-14T02:51:05;101206.38;;;17.30;50.65
78016;BME280;67223;51.102;5.882;2023-06-14T02:53:31;101206.56;;;17.28;50.47
78016;BME280;67223;51.102;5.882;2023-06-14T02:55:56;101202.16;;;17.27;50.82
78016;BME280;67223;51.102;5.882;2023-06-14T02:58:22;101207.31;;;17.12;51.21
78016;BME280;67223;51.102;5.882;2023-06-14T03:00:50;101209.44;;;17.09;51.23
78016;BME280;67223;51.102;5.882;2023-06-14T03:03:17;101200.72;;;17.15;51.25
78016;BME280;67223;51.102;5.882;2023-06-14T03:05:45;101212.78;;;17.03;51.65
78016;BME280;67223;51.102;5.882;2023-06-14T03:08:13;101206.97;;;17.15;51.34
78016;BME280;67223;51.102;5.882;2023-06-14T03:10:45;101219.97;;;16.94;51.89
78016;BME280;67223;51.102;5.882;2023-06-14T03:13:11;101210.56;;;16.98;51.71
78016;BME280;67223;51.102;5.882;2023-06-14T03:15:37;101213.66;;;16.86;52.27
78016;BME280;67223;51.102;5.882;2023-06-14T03:18:04;101219.59;;;16.89;52.25
78016;BME280;67223;51.102;5.882;2023-06-14T03:20:29;101228.00;;;16.86;52.08
78016;BME280;67223;51.102;5.882;2023-06-14T03:22:59;101230.47;;;16.79;52.30
78016;BME280;67223;51.102;5.882;2023-06-14T03:25:25;101229.84;;;16.86;52.05
78016;BME280;67223;51.102;5.882;2023-06-14T03:27:51;101224.69;;;16.92;52.10
78016;BME280;67223;51.102;5.882;2023-06-14T03:30:17;101232.16;;;16.81;52.65
78016;BME280;67223;51.102;5.882;2023-06-14T03:32:42;101228.94;;;16.77;52.57
78016;BME280;67223;51.102;5.882;2023-06-14T03:35:08;101229.16;;;16.66;53.42
78016;BME280;67223;51.102;5.882;2023-06-14T03:37:34;101240.28;;;16.63;53.68
78016;BME280;67223;51.102;5.882;2023-06-14T03:39:59;101241.28;;;16.62;52.93
78016;BME280;67223;51.102;5.882;2023-06-14T03:42:26;101243.50;;;16.66;53.06
78016;BME280;67223;51.102;5.882;2023-06-14T03:44:54;101238.50;;;16.71;52.57
78016;BME280;67223;51.102;5.882;2023-06-14T03:47:20;101240.94;;;16.65;53.17
78016;BME280;67223;51.102;5.882;2023-06-14T03:49:45;101241.19;;;16.71;52.74
78016;BME280;67223;51.102;5.882;2023-06-14T03:52:11;101237.78;;;16.69;52.80
78016;BME280;67223;51.102;5.882;2023-06-14T03:54:36;101245.66;;;16.81;52.39
78016;BME280;67223;51.102;5.882;2023-06-14T03:57:02;101241.09;;;16.81;53.03
78016;BME280;67223;51.102;5.882;2023-06-14T03:59:27;101243.56;;;16.74;53.08
78016;BME280;67223;51.102;5.882;2023-06-14T04:04:30;101241.19;;;16.71;53.36
78016;BME280;67223;51.102;5.882;2023-06-14T04:06:56;101241.72;;;16.75;53.15
78016;BME280;67223;51.102;5.882;2023-06-14T04:09:26;101252.75;;;16.82;53.10
78016;BME280;67223;51.102;5.882;2023-06-14T04:11:55;101248.25;;;16.90;53.11
78016;BME280;67223;51.102;5.882;2023-06-14T04:14:21;101253.81;;;16.89;52.72
78016;BME280;67223;51.102;5.882;2023-06-14T04:16:47;101245.41;;;16.92;52.50
78016;BME280;67223;51.102;5.882;2023-06-14T04:19:13;101257.25;;;16.99;52.85
78016;BME280;67223;51.102;5.882;2023-06-14T04:21:38;101254.50;;;16.91;52.39
78016;BME280;67223;51.102;5.882;2023-06-14T04:24:04;101254.41;;;17.00;52.40
78016;BME280;67223;51.102;5.882;2023-06-14T04:26:30;101257.81;;;17.02;52.21
78016;BME280;67223;51.102;5.882;2023-06-14T04:28:59;101260.56;;;17.10;52.37
78016;BME280;67223;51.102;5.882;2023-06-14T04:31:28;101270.00;;;17.06;52.64
78016;BME280;67223;51.102;5.882;2023-06-14T04:33:55;101265.72;;;17.04;52.71
78016;BME280;67223;51.102;5.882;2023-06-14T04:36:21;101265.44;;;17.07;52.53
78016;BME280;67223;51.102;5.882;2023-06-14T04:38:46;101266.25;;;17.25;52.35
78016;BME280;67223;51.102;5.882;2023-06-14T04:41:12;101266.88;;;17.19;53.00
78016;BME280;67223;51.102;5.882;2023-06-14T04:43:38;101272.75;;;17.14;53.23
78016;BME280;67223;51.102;5.882;2023-06-14T04:46:06;101280.78;;;17.06;53.22
78016;BME280;67223;51.102;5.882;2023-06-14T04:48:39;101273.44;;;17.16;52.62
78016;BME280;67223;51.102;5.882;2023-06-14T04:51:06;101281.59;;;17.25;53.13
78016;BME280;67223;51.102;5.882;2023-06-14T04:53:32;101274.25;;;17.35;52.98
78016;BME280;67223;51.102;5.882;2023-06-14T04:55:57;101278.66;;;17.36;53.03
78016;BME280;67223;51.102;5.882;2023-06-14T04:58:23;101272.28;;;17.45;53.39
78016;BME280;67223;51.102;5.882;2023-06-14T05:00:48;101272.19;;;18.14;53.92
78016;BME280;67223;51.102;5.882;2023-06-14T05:03:14;101282.75;;;17.99;52.04
78016;BME280;67223;51.102;5.882;2023-06-14T05:05:40;101270.84;;;17.76;52.82
78016;BME280;67223;51.102;5.882;2023-06-14T05:08:06;101278.56;;;17.71;53.06
78016;BME280;67223;51.102;5.882;2023-06-14T05:10:32;101281.00;;;17.82;52.06
78016;BME280;67223;51.102;5.882;2023-06-14T05:13:00;101278.41;;;18.06;51.99
78016;BME280;67223;51.102;5.882;2023-06-14T05:15:25;101274.75;;;18.24;50.62
78016;BME280;67223;51.102;5.882;2023-06-14T05:17:53;101280.69;;;18.27;51.25
78016;BME280;67223;51.102;5.882;2023-06-14T05:20:21;101282.00;;;18.57;50.67
78016;BME280;67223;51.102;5.882;2023-06-14T05:22:48;101279.81;;;18.61;50.30
78016;BME280;67223;51.102;5.882;2023-06-14T05:25:17;101284.72;;;18.65;50.37
78016;BME280;67223;51.102;5.882;2023-06-14T05:27:44;101289.66;;;18.86;50.05
78016;BME280;67223;51.102;5.882;2023-06-14T05:30:10;101283.22;;;18.95;50.07
78016;BME280;67223;51.102;5.882;2023-06-14T05:32:38;101285.09;;;18.95;49.57
78016;BME280;67223;51.102;5.882;2023-06-14T05:35:03;101293.03;;;19.28;49.27
78016;BME280;67223;51.102;5.882;2023-06-14T05:37:29;101287.78;;;19.35;49.72
78016;BME280;67223;51.102;5.882;2023-06-14T05:39:56;101292.03;;;19.54;48.92
78016;BME280;67223;51.102;5.882;2023-06-14T05:42:21;101292.50;;;19.73;47.89
78016;BME280;67223;51.102;5.882;2023-06-14T05:44:46;101295.84;;;19.92;48.37
78016;BME280;67223;51.102;5.882;2023-06-14T05:47:12;101301.31;;;20.23;47.04
78016;BME280;67223;51.102;5.882;2023-06-14T05:49:37;101302.13;;;20.39;47.50
78016;BME280;67223;51.102;5.882;2023-06-14T05:52:03;101309.59;;;20.29;46.69
78016;BME280;67223;51.102;5.882;2023-06-14T05:54:28;101310.44;;;20.69;46.45
78016;BME280;67223;51.102;5.882;2023-06-14T05:56:54;101322.59;;;20.81;46.03
78016;BME280;67223;51.102;5.882;2023-06-14T05:59:19;101323.97;;;20.99;44.28
78016;BME280;67223;51.102;5.882;2023-06-14T06:01:45;101327.78;;;21.13;44.16
78016;BME280;67223;51.102;5.882;2023-06-14T06:04:11;101329.53;;;21.06;44.43
78016;BME280;67223;51.102;5.882;2023-06-14T06:06:37;101326.91;;;21.21;44.27
78016;BME280;67223;51.102;5.882;2023-06-14T06:09:02;101328.69;;;21.51;43.55
78016;BME280;67223;51.102;5.882;2023-06-14T06:11:28;101331.75;;;21.85;43.02
78016;BME280;67223;51.102;5.882;2023-06-14T06:13:53;101330.16;;;21.91;41.58
78016;BME280;67223;51.102;5.882;2023-06-14T06:16:19;101331.53;;;21.87;40.74
78016;BME280;67223;51.102;5.882;2023-06-14T06:18:44;101331.78;;;22.15;40.20
78016;BME280;67223;51.102;5.882;2023-06-14T06:21:10;101343.88;;;21.98;40.68
78016;BME280;67223;51.102;5.882;2023-06-14T06:23:35;101343.31;;;22.17;40.08
78016;BME280;67223;51.102;5.882;2023-06-14T06:26:01;101345.66;;;22.20;40.75
78016;BME280;67223;51.102;5.882;2023-06-14T06:28:26;101348.91;;;22.59;39.83
78016;BME280;67223;51.102;5.882;2023-06-14T06:30:52;101345.88;;;22.84;39.04
78016;BME280;67223;51.102;5.882;2023-06-14T06:33:18;101350.00;;;23.15;38.35
78016;BME280;67223;51.102;5.882;2023-06-14T06:35:43;101346.94;;;23.25;38.23
78016;BME280;67223;51.102;5.882;2023-06-14T06:38:09;101352.66;;;23.30;37.42
78016;BME280;67223;51.102;5.882;2023-06-14T06:40:35;101357.50;;;23.35;36.78
78016;BME280;67223;51.102;5.882;2023-06-14T06:43:02;101360.81;;;23.09;37.53
78016;BME280;67223;51.102;5.882;2023-06-14T06:45:28;101364.50;;;23.44;37.10
78016;BME280;67223;51.102;5.882;2023-06-14T06:47:53;101366.94;;;23.53;36.94
78016;BME280;67223;51.102;5.882;2023-06-14T06:50:19;101368.28;;;23.64;36.48
78016;BME280;67223;51.102;5.882;2023-06-14T06:52:50;101376.81;;;24.10;35.87
78016;BME280;67223;51.102;5.882;2023-06-14T06:55:16;101370.75;;;24.15;34.89
78016;BME280;67223;51.102;5.882;2023-06-14T06:57:42;101369.38;;;23.97;33.44
78016;BME280;67223;51.102;5.882;2023-06-14T07:00:08;101377.25;;;24.14;33.20
78016;BME280;67223;51.102;5.882;2023-06-14T07:02:34;101375.19;;;24.16;33.80
78016;BME280;67223;51.102;5.882;2023-06-14T07:05:00;101371.16;;;24.12;33.65
78016;BME280;67223;51.102;5.882;2023-06-14T07:07:25;101379.59;;;24.17;33.19
78016;BME280;67223;51.102;5.882;2023-06-14T07:09:51;101378.22;;;23.29;34.71
78016;BME280;67223;51.102;5.882;2023-06-14T07:12:17;101388.91;;;24.63;32.97
78016;BME280;67223;51.102;5.882;2023-06-14T07:14:43;101386.78;;;24.59;32.23
78016;BME280;67223;51.102;5.882;2023-06-14T07:17:09;101390.78;;;25.17;31.73
78016;BME280;67223;51.102;5.882;2023-06-14T07:19:34;101393.88;;;24.94;31.87
78016;BME280;67223;51.102;5.882;2023-06-14T07:22:00;101389.63;;;24.85;31.93
78016;BME280;67223;51.102;5.882;2023-06-14T07:24:26;101399.63;;;25.19;32.13
78016;BME280;67223;51.102;5.882;2023-06-14T07:26:53;101392.28;;;24.72;31.92
78016;BME280;67223;51.102;5.882;2023-06-14T07:29:20;101399.59;;;24.58;32.42
78016;BME280;67223;51.102;5.882;2023-06-14T07:31:46;101397.69;;;25.06;32.22
78016;BME280;67223;51.102;5.882;2023-06-14T07:34:12;101398.19;;;25.36;31.19
78016;BME280;67223;51.102;5.882;2023-06-14T07:36:37;101408.72;;;25.39;30.39
78016;BME280;67223;51.102;5.882;2023-06-14T07:39:03;101402.59;;;25.24;30.51
78016;BME280;67223;51.102;5.882;2023-06-14T07:41:30;101407.00;;;25.25;30.47
78016;BME280;67223;51.102;5.882;2023-06-14T07:43:56;101405.78;;;25.54;30.26
78016;BME280;67223;51.102;5.882;2023-06-14T07:46:21;101406.88;;;24.44;31.62
78016;BME280;67223;51.102;5.882;2023-06-14T07:48:47;101402.81;;;24.75;32.21
78016;BME280;67223;51.102;5.882;2023-06-14T07:51:13;101402.69;;;25.70;29.99
78016;BME280;67223;51.102;5.882;2023-06-14T07:53:39;101405.78;;;26.39;29.05
78016;BME280;67223;51.102;5.882;2023-06-14T07:56:06;101420.56;;;25.86;29.63
78016;BME280;67223;51.102;5.882;2023-06-14T07:58:32;101412.13;;;26.07;29.76
78016;BME280;67223;51.102;5.882;2023-06-14T08:00:58;101411.16;;;26.72;29.86
78016;BME280;67223;51.102;5.882;2023-06-14T08:03:24;101412.34;;;25.59;29.52
78016;BME280;67223;51.102;5.882;2023-06-14T08:05:51;101413.81;;;26.14;29.57
78016;BME280;67223;51.102;5.882;2023-06-14T08:08:16;101415.59;;;26.67;29.39
78016;BME280;67223;51.102;5.882;2023-06-14T08:10:42;101414.66;;;26.99;28.53
78016;BME280;67223;51.102;5.882;2023-06-14T08:13:07;101412.41;;;27.59;27.26
78016;BME280;67223;51.102;5.882;2023-06-14T08:15:35;101419.50;;;26.97;27.94
78016;BME280;67223;51.102;5.882;2023-06-14T08:18:01;101413.19;;;27.34;27.27
78016;BME280;67223;51.102;5.882;2023-06-14T08:20:27;101420.75;;;27.70;28.86
78016;BME280;67223;51.102;5.882;2023-06-14T08:22:52;101415.66;;;27.49;26.92
78016;BME280;67223;51.102;5.882;2023-06-14T08:25:22;101430.59;;;27.85;26.88
78016;BME280;67223;51.102;5.882;2023-06-14T08:27:48;101430.00;;;26.36;27.35
78016;BME280;67223;51.102;5.882;2023-06-14T08:30:13;101424.75;;;26.21;28.21
78016;BME280;67223;51.102;5.882;2023-06-14T08:32:39;101422.31;;;27.60;26.45
78016;BME280;67223;51.102;5.882;2023-06-14T08:35:05;101433.81;;;27.75;25.60
78016;BME280;67223;51.102;5.882;2023-06-14T08:37:31;101432.69;;;27.82;25.69
78016;BME280;67223;51.102;5.882;2023-06-14T08:39:56;101428.69;;;27.16;25.98
78016;BME280;67223;51.102;5.882;2023-06-14T08:42:23;101439.28;;;28.00;25.59
78016;BME280;67223;51.102;5.882;2023-06-14T08:44:49;101430.47;;;28.41;25.67
78016;BME280;67223;51.102;5.882;2023-06-14T08:47:15;101423.41;;;27.59;25.89
78016;BME280;67223;51.102;5.882;2023-06-14T08:49:46;101418.44;;;28.42;25.94
78016;BME280;67223;51.102;5.882;2023-06-14T08:52:13;101420.19;;;29.09;24.78
78016;BME280;67223;51.102;5.882;2023-06-14T08:54:41;101426.78;;;29.38;24.29
78016;BME280;67223;51.102;5.882;2023-06-14T08:57:11;101424.56;;;28.98;23.57
78016;BME280;67223;51.102;5.882;2023-06-14T08:59:46;101426.25;;;28.20;24.49
78016;BME280;67223;51.102;5.882;2023-06-14T09:02:12;101415.69;;;28.23;24.62
78016;BME280;67223;51.102;5.882;2023-06-14T09:04:39;101413.13;;;29.13;24.58
78016;BME280;67223;51.102;5.882;2023-06-14T09:07:06;101415.50;;;29.09;24.68
78016;BME280;67223;51.102;5.882;2023-06-14T09:09:32;101421.81;;;29.70;23.19
78016;BME280;67223;51.102;5.882;2023-06-14T09:11:57;101418.41;;;29.44;23.24
78016;BME280;67223;51.102;5.882;2023-06-14T09:14:24;101415.84;;;29.73;23.66
78016;BME280;67223;51.102;5.882;2023-06-14T09:16:54;101418.91;;;30.06;23.26
78016;BME280;67223;51.102;5.882;2023-06-14T09:19:26;101409.88;;;29.87;22.44
78016;BME280;67223;51.102;5.882;2023-06-14T09:21:52;101419.84;;;30.35;22.38
78016;BME280;67223;51.102;5.882;2023-06-14T09:24:18;101425.72;;;30.15;20.65
78016;BME280;67223;51.102;5.882;2023-06-14T09:26:46;101419.88;;;30.58;20.75
78016;BME280;67223;51.102;5.882;2023-06-14T09:29:12;101418.31;;;30.16;20.74
78016;BME280;67223;51.102;5.882;2023-06-14T09:31:38;101416.66;;;30.90;21.87
78016;BME280;67223;51.102;5.882;2023-06-14T09:34:03;101431.75;;;30.47;19.73
78016;BME280;67223;51.102;5.882;2023-06-14T09:36:31;101427.03;;;30.59;20.38
78016;BME280;67223;51.102;5.882;2023-06-14T09:38:58;101431.06;;;29.87;19.96
78016;BME280;67223;51.102;5.882;2023-06-14T09:41:35;101426.78;;;29.49;20.11
78016;BME280;67223;51.102;5.882;2023-06-14T09:44:02;101417.94;;;29.18;19.99
78016;BME280;67223;51.102;5.882;2023-06-14T09:46:29;101415.91;;;30.31;18.82
78016;BME280;67223;51.102;5.882;2023-06-14T09:48:59;101413.84;;;31.13;18.09
78016;BME280;67223;51.102;5.882;2023-06-14T09:51:25;101412.31;;;31.50;18.74
78016;BME280;67223;51.102;5.882;2023-06-14T09:53:52;101408.34;;;30.61;17.53
78016;BME280;67223;51.102;5.882;2023-06-14T09:56:37;101410.25;;;31.01;18.01
78016;BME280;67223;51.102;5.882;2023-06-14T09:59:06;101406.16;;;31.60;17.60
78016;BME280;67223;51.102;5.882;2023-06-14T10:01:35;101416.53;;;31.53;16.90
78016;BME280;67223;51.102;5.882;2023-06-14T10:04:06;101419.38;;;31.30;18.65
78016;BME280;67223;51.102;5.882;2023-06-14T10:06:35;101413.63;;;31.76;16.76
78016;BME280;67223;51.102;5.882;2023-06-14T10:09:04;101419.84;;;32.17;16.79
78016;BME280;67223;51.102;5.882;2023-06-14T10:11:31;101419.81;;;31.22;17.29
78016;BME280;67223;51.102;5.882;2023-06-14T10:13:57;101418.13;;;31.99;17.12
78016;BME280;67223;51.102;5.882;2023-06-14T10:19:00;101421.09;;;30.91;18.29
78016;BME280;67223;51.102;5.882;2023-06-14T10:21:46;101409.63;;;31.67;17.69
78016;BME280;67223;51.102;5.882;2023-06-14T10:24:19;101410.03;;;31.92;16.33
78016;BME280;67223;51.102;5.882;2023-06-14T10:26:51;101411.94;;;32.25;16.64
78016;BME280;67223;51.102;5.882;2023-06-14T10:29:16;101416.06;;;31.44;17.53
78016;BME280;67223;51.102;5.882;2023-06-14T10:31:43;101415.97;;;31.68;17.16
78016;BME280;67223;51.102;5.882;2023-06-14T10:34:09;101414.03;;;31.85;16.73
78016;BME280;67223;51.102;5.882;2023-06-14T10:36:35;101410.94;;;32.31;16.90
78016;BME280;67223;51.102;5.882;2023-06-14T10:41:56;101414.44;;;32.10;18.26
78016;BME280;67223;51.102;5.882;2023-06-14T10:46:48;101408.66;;;30.76;18.59
78016;BME280;67223;51.102;5.882;2023-06-14T10:49:17;101410.63;;;31.49;19.22
78016;BME280;67223;51.102;5.882;2023-06-14T10:51:51;101396.94;;;30.34;19.01
78016;BME280;67223;51.102;5.882;2023-06-14T10:54:17;101406.69;;;31.57;19.26
78016;BME280;67223;51.102;5.882;2023-06-14T10:56:46;101409.53;;;31.34;22.23
78016;BME280;67223;51.102;5.882;2023-06-14T10:59:12;101419.72;;;29.95;19.37
78016;BME280;67223;51.102;5.882;2023-06-14T11:04:50;101425.09;;;31.23;18.57
78016;BME280;67223;51.102;5.882;2023-06-14T11:07:58;101418.22;;;31.71;21.17
78016;BME280;67223;51.102;5.882;2023-06-14T11:13:06;101416.16;;;31.49;18.84
78016;BME280;67223;51.102;5.882;2023-06-14T11:15:34;101413.78;;;31.86;18.31
78016;BME280;67223;51.102;5.882;2023-06-14T11:18:01;101413.19;;;31.84;18.73
78016;BME280;67223;51.102;5.882;2023-06-14T11:20:30;101416.59;;;31.01;18.79
78016;BME280;67223;51.102;5.882;2023-06-14T11:22:56;101409.28;;;30.67;19.75
78016;BME280;67223;51.102;5.882;2023-06-14T11:25:21;101414.19;;;30.65;20.03
78016;BME280;67223;51.102;5.882;2023-06-14T11:27:49;101402.22;;;31.11;19.87
78016;BME280;67223;51.102;5.882;2023-06-14T11:30:16;101404.81;;;30.77;20.48
78016;BME280;67223;51.102;5.882;2023-06-14T11:32:42;101399.63;;;30.93;20.91
78016;BME280;67223;51.102;5.882;2023-06-14T11:35:08;101401.13;;;30.60;21.08
78016;BME280;67223;51.102;5.882;2023-06-14T11:37:36;101397.50;;;30.83;20.84
78016;BME280;67223;51.102;5.882;2023-06-14T11:40:04;101398.38;;;31.12;21.15
78016;BME280;67223;51.102;5.882;2023-06-14T11:42:37;101392.28;;;30.58;21.30
78016;BME280;67223;51.102;5.882;2023-06-14T11:45:03;101397.53;;;30.60;20.57
78016;BME280;67223;51.102;5.882;2023-06-14T11:47:35;101402.84;;;30.90;21.14
78016;BME280;67223;51.102;5.882;2023-06-14T11:50:02;101400.38;;;29.60;21.86
78016;BME280;67223;51.102;5.882;2023-06-14T11:52:28;101396.91;;;29.65;22.30
78016;BME280;67223;51.102;5.882;2023-06-14T11:54:54;101392.28;;;29.05;23.75
78016;BME280;67223;51.102;5.882;2023-06-14T11:57:19;101397.13;;;29.51;23.22
78016;BME280;67223;51.102;5.882;2023-06-14T11:59:46;101400.47;;;29.42;24.52
78016;BME280;67223;51.102;5.882;2023-06-14T12:02:19;101399.97;;;29.15;23.06
78016;BME280;67223;51.102;5.882;2023-06-14T12:04:49;101404.59;;;29.63;23.27
78016;BME280;67223;51.102;5.882;2023-06-14T12:07:16;101405.13;;;29.12;23.51
78016;BME280;67223;51.102;5.882;2023-06-14T12:10:06;101401.97;;;29.68;25.05
78016;BME280;67223;51.102;5.882;2023-06-14T12:12:36;101401.94;;;28.60;22.29
78016;BME280;67223;51.102;5.882;2023-06-14T12:15:05;101404.78;;;28.53;23.01
78016;BME280;67223;51.102;5.882;2023-06-14T12:17:33;101401.31;;;29.54;25.73
78016;BME280;67223;51.102;5.882;2023-06-14T12:19:59;101395.53;;;28.84;23.22
78016;BME280;67223;51.102;5.882;2023-06-14T12:22:31;101383.69;;;28.65;23.72
78016;BME280;67223;51.102;5.882;2023-06-14T12:24:56;101400.19;;;28.65;23.87
78016;BME280;67223;51.102;5.882;2023-06-14T12:27:22;101390.47;;;28.99;23.34
78016;BME280;67223;51.102;5.882;2023-06-14T12:29:59;101397.84;;;28.69;23.53
78016;BME280;67223;51.102;5.882;2023-06-14T12:32:24;101398.03;;;27.63;23.11
78016;BME280;67223;51.102;5.882;2023-06-14T12:34:50;101395.44;;;27.68;24.72
78016;BME280;67223;51.102;5.882;2023-06-14T12:37:16;101397.63;;;28.09;23.41
78016;BME280;67223;51.102;5.882;2023-06-14T12:39:42;101395.16;;;27.45;23.52
78016;BME280;67223;51.102;5.882;2023-06-14T12:42:07;101389.00;;;27.81;23.67
78016;BME280;67223;51.102;5.882;2023-06-14T12:44:33;101391.66;;;27.69;23.27
78016;BME280;67223;51.102;5.882;2023-06-14T12:47:01;101397.56;;;27.66;24.53
78016;BME280;67223;51.102;5.882;2023-06-14T12:49:26;101397.91;;;27.76;23.48
78016;BME280;67223;51.102;5.882;2023-06-14T12:51:52;101400.03;;;27.12;22.75
78016;BME280;67223;51.102;5.882;2023-06-14T12:54:17;101398.94;;;27.19;23.85
78016;BME280;67223;51.102;5.882;2023-06-14T12:56:42;101394.34;;;27.13;23.49
78016;BME280;67223;51.102;5.882;2023-06-14T12:59:10;101394.41;;;27.31;23.89
78016;BME280;67223;51.102;5.882;2023-06-14T13:01:38;101396.06;;;27.39;25.47
78016;BME280;67223;51.102;5.882;2023-06-14T13:04:04;101395.47;;;26.86;24.25
78016;BME280;67223;51.102;5.882;2023-06-14T13:06:29;101393.28;;;27.14;25.00
78016;BME280;67223;51.102;5.882;2023-06-14T13:08:56;101397.13;;;27.00;25.14